sensor_id;sensor_type;location;lat;lon;timestamp;P1;durP1;ratioP1;P2;durP2;ratioP2
73980;SDS011;62348;51.412;5.436;2023-08-12T00:00:54;15.80;;;11.77;;
73980;SDS011;62348;51.412;5.436;2023-08-12T00:03:19;15.90;;;11.93;;
73980;SDS011;62348;51.412;5.436;2023-08-12T00:05:45;17.58;;;12.13;;
73980;SDS011;62348;51.412;5.436;2023-08-12T00:08:10;14.90;;;12.20;;
73980;SDS011;62348;51.412;5.436;2023-08-12T00:10:36;15.80;;;11.57;;
73980;SDS011;62348;51.412;5.436;2023-08-12T00:13:01;20.15;;;12.88;;
73980;SDS011;62348;51.412;5.436;2023-08-12T00:15:27;15.40;;;12.93;;
73980;SDS011;62348;51.412;5.436;2023-08-12T00:17:52;16.00;;;12.55;;
73980;SDS011;62348;51.412;5.436;2023-08-12T00:20:17;20.27;;;13.30;;
73980;SDS011;62348;51.412;5.436;2023-08-12T00:22:43;18.45;;;13.85;;
73980;SDS011;62348;51.412;5.436;2023-08-12T00:25:09;17.58;;;14.13;;
73980;SDS011;62348;51.412;5.436;2023-08-12T00:27:35;15.65;;;12.45;;
73980;SDS011;62348;51.412;5.436;2023-08-12T00:30:00;15.50;;;13.20;;
73980;SDS011;62348;51.412;5.436;2023-08-12T00:32:26;17.73;;;13.02;;
73980;SDS011;62348;51.412;5.436;2023-08-12T00:34:51;16.63;;;14.07;;
73980;SDS011;62348;51.412;5.436;2023-08-12T00:37:16;18.40;;;14.05;;
73980;SDS011;62348;51.412;5.436;2023-08-12T00:39:42;17.17;;;13.98;;
73980;SDS011;62348;51.412;5.436;2023-08-12T00:42:07;16.63;;;12.50;;
73980;SDS011;62348;51.412;5.436;2023-08-12T00:44:33;20.38;;;13.18;;
73980;SDS011;62348;51.412;5.436;2023-08-12T00:46:58;18.08;;;12.75;;
73980;SDS011;62348;51.412;5.436;2023-08-12T00:49:24;15.85;;;12.57;;
73980;SDS011;62348;51.412;5.436;2023-08-12T00:51:51;13.57;;;11.23;;
73980;SDS011;62348;51.412;5.436;2023-08-12T00:54:17;15.63;;;12.05;;
73980;SDS011;62348;51.412;5.436;2023-08-12T00:56:45;13.77;;;11.23;;
73980;SDS011;62348;51.412;5.436;2023-08-12T00:59:11;14.13;;;11.13;;
73980;SDS011;62348;51.412;5.436;2023-08-12T01:01:38;15.77;;;11.90;;
73980;SDS011;62348;51.412;5.436;2023-08-12T01:04:05;14.05;;;11.95;;
73980;SDS011;62348;51.412;5.436;2023-08-12T01:06:31;14.43;;;10.80;;
73980;SDS011;62348;51.412;5.436;2023-08-12T01:08:56;15.88;;;11.88;;
73980;SDS011;62348;51.412;5.436;2023-08-12T01:16:47;14.43;;;11.38;;
73980;SDS011;62348;51.412;5.436;2023-08-12T01:19:21;17.38;;;11.52;;
73980;SDS011;62348;51.412;5.436;2023-08-12T01:21:54;14.95;;;11.13;;
73980;SDS011;62348;51.412;5.436;2023-08-12T01:24:24;11.90;;;10.38;;
73980;SDS011;62348;51.412;5.436;2023-08-12T01:26:49;17.35;;;11.52;;
73980;SDS011;62348;51.412;5.436;2023-08-12T01:29:15;18.05;;;11.30;;
73980;SDS011;62348;51.412;5.436;2023-08-12T01:31:46;17.65;;;10.93;;
73980;SDS011;62348;51.412;5.436;2023-08-12T01:34:21;18.10;;;10.60;;
73980;SDS011;62348;51.412;5.436;2023-08-12T01:36:55;15.20;;;11.45;;
73980;SDS011;62348;51.412;5.436;2023-08-12T01:39:22;15.80;;;11.30;;
73980;SDS011;62348;51.412;5.436;2023-08-12T01:41:49;11.85;;;9.77;;
73980;SDS011;62348;51.412;5.436;2023-08-12T01:44:16;12.75;;;9.32;;
73980;SDS011;62348;51.412;5.436;2023-08-12T01:46:42;17.95;;;11.48;;
73980;SDS011;62348;51.412;5.436;2023-08-12T01:49:09;16.55;;;10.98;;
73980;SDS011;62348;51.412;5.436;2023-08-12T01:51:34;12.20;;;9.82;;
73980;SDS011;62348;51.412;5.436;2023-08-12T01:53:59;14.63;;;10.15;;
73980;SDS011;62348;51.412;5.436;2023-08-12T01:56:25;13.60;;;9.82;;
73980;SDS011;62348;51.412;5.436;2023-08-12T01:58:50;13.43;;;9.52;;
73980;SDS011;62348;51.412;5.436;2023-08-12T02:01:15;11.18;;;10.05;;
73980;SDS011;62348;51.412;5.436;2023-08-12T02:03:41;16.30;;;10.13;;
73980;SDS011;62348;51.412;5.436;2023-08-12T02:06:06;16.90;;;9.93;;
73980;SDS011;62348;51.412;5.436;2023-08-12T02:08:32;16.42;;;9.45;;
73980;SDS011;62348;51.412;5.436;2023-08-12T02:10:57;12.13;;;9.18;;
73980;SDS011;62348;51.412;5.436;2023-08-12T02:13:22;13.07;;;8.95;;
73980;SDS011;62348;51.412;5.436;2023-08-12T02:15:48;10.30;;;8.73;;
73980;SDS011;62348;51.412;5.436;2023-08-12T02:18:13;20.88;;;11.48;;
73980;SDS011;62348;51.412;5.436;2023-08-12T02:20:40;15.73;;;10.82;;
73980;SDS011;62348;51.412;5.436;2023-08-12T02:23:06;18.25;;;8.73;;
73980;SDS011;62348;51.412;5.436;2023-08-12T02:25:31;14.07;;;9.35;;
73980;SDS011;62348;51.412;5.436;2023-08-12T02:27:57;13.40;;;9.80;;
73980;SDS011;62348;51.412;5.436;2023-08-12T02:30:22;11.43;;;8.93;;
73980;SDS011;62348;51.412;5.436;2023-08-12T02:32:48;14.05;;;9.73;;
73980;SDS011;62348;51.412;5.436;2023-08-12T02:35:14;11.68;;;8.05;;
73980;SDS011;62348;51.412;5.436;2023-08-12T02:37:40;11.63;;;9.30;;
73980;SDS011;62348;51.412;5.436;2023-08-12T02:40:06;12.90;;;8.30;;
73980;SDS011;62348;51.412;5.436;2023-08-12T02:42:32;14.73;;;9.80;;
73980;SDS011;62348;51.412;5.436;2023-08-12T02:44:57;10.27;;;8.25;;
73980;SDS011;62348;51.412;5.436;2023-08-12T02:47:24;11.88;;;7.72;;
73980;SDS011;62348;51.412;5.436;2023-08-12T02:49:50;12.32;;;8.90;;
73980;SDS011;62348;51.412;5.436;2023-08-12T02:52:16;13.70;;;8.32;;
73980;SDS011;62348;51.412;5.436;2023-08-12T02:54:41;14.68;;;8.93;;
73980;SDS011;62348;51.412;5.436;2023-08-12T02:57:06;10.48;;;8.05;;
73980;SDS011;62348;51.412;5.436;2023-08-12T02:59:32;12.02;;;8.32;;
73980;SDS011;62348;51.412;5.436;2023-08-12T03:01:58;12.60;;;7.22;;
73980;SDS011;62348;51.412;5.436;2023-08-12T03:04:24;10.77;;;8.25;;
73980;SDS011;62348;51.412;5.436;2023-08-12T03:06:49;14.13;;;7.68;;
73980;SDS011;62348;51.412;5.436;2023-08-12T03:09:15;10.15;;;7.68;;
73980;SDS011;62348;51.412;5.436;2023-08-12T03:11:40;13.23;;;7.80;;
73980;SDS011;62348;51.412;5.436;2023-08-12T03:14:06;12.32;;;8.02;;
73980;SDS011;62348;51.412;5.436;2023-08-12T03:16:31;14.57;;;7.50;;
73980;SDS011;62348;51.412;5.436;2023-08-12T03:18:57;11.70;;;7.55;;
73980;SDS011;62348;51.412;5.436;2023-08-12T03:21:23;7.32;;;6.45;;
73980;SDS011;62348;51.412;5.436;2023-08-12T03:23:48;13.35;;;7.95;;
73980;SDS011;62348;51.412;5.436;2023-08-12T03:26:13;11.90;;;8.18;;
73980;SDS011;62348;51.412;5.436;2023-08-12T03:28:39;13.10;;;8.32;;
73980;SDS011;62348;51.412;5.436;2023-08-12T03:31:04;12.55;;;8.35;;
73980;SDS011;62348;51.412;5.436;2023-08-12T03:33:30;12.63;;;7.60;;
73980;SDS011;62348;51.412;5.436;2023-08-12T03:35:57;12.23;;;8.18;;
73980;SDS011;62348;51.412;5.436;2023-08-12T03:38:22;12.45;;;7.75;;
73980;SDS011;62348;51.412;5.436;2023-08-12T03:40:48;14.40;;;8.40;;
73980;SDS011;62348;51.412;5.436;2023-08-12T03:43:15;9.93;;;7.82;;
73980;SDS011;62348;51.412;5.436;2023-08-12T03:45:41;9.10;;;8.00;;
73980;SDS011;62348;51.412;5.436;2023-08-12T03:48:07;11.07;;;7.63;;
73980;SDS011;62348;51.412;5.436;2023-08-12T03:50:42;11.07;;;6.95;;
73980;SDS011;62348;51.412;5.436;2023-08-12T03:53:07;9.82;;;8.05;;
73980;SDS011;62348;51.412;5.436;2023-08-12T03:55:34;7.90;;;7.07;;
73980;SDS011;62348;51.412;5.436;2023-08-12T03:57:59;10.40;;;7.05;;
73980;SDS011;62348;51.412;5.436;2023-08-12T04:00:25;11.88;;;6.95;;
73980;SDS011;62348;51.412;5.436;2023-08-12T04:02:51;11.23;;;7.90;;
73980;SDS011;62348;51.412;5.436;2023-08-12T04:05:17;8.27;;;7.30;;
73980;SDS011;62348;51.412;5.436;2023-08-12T04:07:42;11.75;;;8.75;;
73980;SDS011;62348;51.412;5.436;2023-08-12T04:10:08;9.80;;;8.05;;
73980;SDS011;62348;51.412;5.436;2023-08-12T04:12:33;10.15;;;7.55;;
73980;SDS011;62348;51.412;5.436;2023-08-12T04:14:59;12.57;;;7.82;;
73980;SDS011;62348;51.412;5.436;2023-08-12T04:17:27;11.68;;;7.72;;
73980;SDS011;62348;51.412;5.436;2023-08-12T04:19:52;9.80;;;8.48;;
73980;SDS011;62348;51.412;5.436;2023-08-12T04:22:18;11.70;;;9.02;;
73980;SDS011;62348;51.412;5.436;2023-08-12T04:24:43;13.10;;;9.23;;
73980;SDS011;62348;51.412;5.436;2023-08-12T04:27:08;10.93;;;8.20;;
73980;SDS011;62348;51.412;5.436;2023-08-12T04:29:34;12.15;;;8.75;;
73980;SDS011;62348;51.412;5.436;2023-08-12T04:32:00;11.60;;;8.63;;
73980;SDS011;62348;51.412;5.436;2023-08-12T04:34:26;11.23;;;8.27;;
73980;SDS011;62348;51.412;5.436;2023-08-12T04:36:51;13.75;;;8.95;;
73980;SDS011;62348;51.412;5.436;2023-08-12T04:39:17;12.75;;;10.30;;
73980;SDS011;62348;51.412;5.436;2023-08-12T04:41:42;13.50;;;10.00;;
73980;SDS011;62348;51.412;5.436;2023-08-12T04:44:07;12.30;;;9.63;;
73980;SDS011;62348;51.412;5.436;2023-08-12T04:46:33;11.23;;;9.23;;
73980;SDS011;62348;51.412;5.436;2023-08-12T04:48:58;12.00;;;8.00;;
73980;SDS011;62348;51.412;5.436;2023-08-12T04:51:23;11.48;;;7.70;;
73980;SDS011;62348;51.412;5.436;2023-08-12T04:53:49;8.90;;;6.63;;
73980;SDS011;62348;51.412;5.436;2023-08-12T04:56:15;9.20;;;6.47;;
73980;SDS011;62348;51.412;5.436;2023-08-12T04:58:40;8.00;;;6.32;;
73980;SDS011;62348;51.412;5.436;2023-08-12T05:01:07;10.75;;;6.53;;
73980;SDS011;62348;51.412;5.436;2023-08-12T05:03:33;8.73;;;6.72;;
73980;SDS011;62348;51.412;5.436;2023-08-12T05:05:58;11.98;;;7.82;;
73980;SDS011;62348;51.412;5.436;2023-08-12T05:08:23;10.30;;;7.30;;
73980;SDS011;62348;51.412;5.436;2023-08-12T05:10:49;8.18;;;6.30;;
73980;SDS011;62348;51.412;5.436;2023-08-12T05:13:15;10.55;;;6.38;;
73980;SDS011;62348;51.412;5.436;2023-08-12T05:15:40;8.07;;;6.00;;
73980;SDS011;62348;51.412;5.436;2023-08-12T05:18:06;7.13;;;6.22;;
73980;SDS011;62348;51.412;5.436;2023-08-12T05:20:31;8.48;;;5.57;;
73980;SDS011;62348;51.412;5.436;2023-08-12T05:22:57;6.90;;;6.20;;
73980;SDS011;62348;51.412;5.436;2023-08-12T05:25:22;7.45;;;5.90;;
73980;SDS011;62348;51.412;5.436;2023-08-12T05:27:48;7.70;;;5.57;;
73980;SDS011;62348;51.412;5.436;2023-08-12T05:30:14;9.63;;;6.18;;
73980;SDS011;62348;51.412;5.436;2023-08-12T05:32:39;6.55;;;5.63;;
73980;SDS011;62348;51.412;5.436;2023-08-12T05:35:05;6.25;;;5.65;;
73980;SDS011;62348;51.412;5.436;2023-08-12T05:37:31;7.68;;;5.60;;
73980;SDS011;62348;51.412;5.436;2023-08-12T05:39:56;6.65;;;5.05;;
73980;SDS011;62348;51.412;5.436;2023-08-12T05:42:21;7.05;;;5.03;;
73980;SDS011;62348;51.412;5.436;2023-08-12T05:44:47;7.13;;;5.15;;
73980;SDS011;62348;51.412;5.436;2023-08-12T05:47:12;5.65;;;5.07;;
73980;SDS011;62348;51.412;5.436;2023-08-12T05:49:37;6.28;;;5.20;;
73980;SDS011;62348;51.412;5.436;2023-08-12T05:52:03;5.10;;;4.32;;
73980;SDS011;62348;51.412;5.436;2023-08-12T05:54:29;5.50;;;5.00;;
73980;SDS011;62348;51.412;5.436;2023-08-12T05:56:54;5.47;;;4.97;;
73980;SDS011;62348;51.412;5.436;2023-08-12T05:59:19;6.32;;;4.60;;
73980;SDS011;62348;51.412;5.436;2023-08-12T06:01:45;5.25;;;4.22;;
73980;SDS011;62348;51.412;5.436;2023-08-12T06:04:10;5.53;;;4.40;;
73980;SDS011;62348;51.412;5.436;2023-08-12T06:06:36;5.05;;;4.55;;
73980;SDS011;62348;51.412;5.436;2023-08-12T06:09:01;4.95;;;4.45;;
73980;SDS011;62348;51.412;5.436;2023-08-12T06:11:26;5.40;;;5.00;;
73980;SDS011;62348;51.412;5.436;2023-08-12T06:13:52;4.32;;;3.92;;
73980;SDS011;62348;51.412;5.436;2023-08-12T06:16:17;6.38;;;4.50;;
73980;SDS011;62348;51.412;5.436;2023-08-12T06:18:42;4.75;;;4.00;;
73980;SDS011;62348;51.412;5.436;2023-08-12T06:21:08;5.25;;;4.72;;
73980;SDS011;62348;51.412;5.436;2023-08-12T06:23:33;4.38;;;4.03;;
73980;SDS011;62348;51.412;5.436;2023-08-12T06:25:59;5.00;;;4.00;;
73980;SDS011;62348;51.412;5.436;2023-08-12T06:28:24;4.38;;;3.97;;
73980;SDS011;62348;51.412;5.436;2023-08-12T06:30:49;5.00;;;3.83;;
73980;SDS011;62348;51.412;5.436;2023-08-12T06:33:15;4.22;;;3.70;;
73980;SDS011;62348;51.412;5.436;2023-08-12T06:35:41;3.70;;;3.30;;
73980;SDS011;62348;51.412;5.436;2023-08-12T06:38:07;3.30;;;3.05;;
73980;SDS011;62348;51.412;5.436;2023-08-12T06:40:34;4.45;;;3.90;;
73980;SDS011;62348;51.412;5.436;2023-08-12T06:43:00;4.35;;;3.95;;
73980;SDS011;62348;51.412;5.436;2023-08-12T06:45:25;4.45;;;3.90;;
73980;SDS011;62348;51.412;5.436;2023-08-12T06:47:51;4.28;;;3.92;;
73980;SDS011;62348;51.412;5.436;2023-08-12T06:50:16;4.28;;;3.80;;
73980;SDS011;62348;51.412;5.436;2023-08-12T06:52:42;4.15;;;3.70;;
73980;SDS011;62348;51.412;5.436;2023-08-12T06:55:08;4.55;;;4.15;;
73980;SDS011;62348;51.412;5.436;2023-08-12T06:57:33;5.40;;;4.88;;
73980;SDS011;62348;51.412;5.436;2023-08-12T06:59:59;5.28;;;4.82;;
73980;SDS011;62348;51.412;5.436;2023-08-12T07:02:24;5.20;;;4.70;;
73980;SDS011;62348;51.412;5.436;2023-08-12T07:04:50;5.10;;;4.60;;
73980;SDS011;62348;51.412;5.436;2023-08-12T07:07:15;6.00;;;4.53;;
73980;SDS011;62348;51.412;5.436;2023-08-12T07:09:40;6.65;;;4.80;;
73980;SDS011;62348;51.412;5.436;2023-08-12T07:12:06;5.68;;;5.13;;
73980;SDS011;62348;51.412;5.436;2023-08-12T07:14:31;5.93;;;5.43;;
73980;SDS011;62348;51.412;5.436;2023-08-12T07:16:57;5.82;;;5.25;;
73980;SDS011;62348;51.412;5.436;2023-08-12T07:19:22;5.78;;;5.18;;
73980;SDS011;62348;51.412;5.436;2023-08-12T07:21:48;5.45;;;4.95;;
73980;SDS011;62348;51.412;5.436;2023-08-12T07:24:13;6.15;;;4.30;;
73980;SDS011;62348;51.412;5.436;2023-08-12T07:26:38;5.55;;;5.05;;
73980;SDS011;62348;51.412;5.436;2023-08-12T07:29:04;6.47;;;5.13;;
73980;SDS011;62348;51.412;5.436;2023-08-12T07:31:29;5.28;;;4.82;;
73980;SDS011;62348;51.412;5.436;2023-08-12T07:33:55;5.47;;;4.40;;
73980;SDS011;62348;51.412;5.436;2023-08-12T07:36:20;5.00;;;4.60;;
73980;SDS011;62348;51.412;5.436;2023-08-12T07:38:46;5.18;;;4.28;;
73980;SDS011;62348;51.412;5.436;2023-08-12T07:41:11;4.78;;;4.07;;
73980;SDS011;62348;51.412;5.436;2023-08-12T07:43:36;4.45;;;4.10;;
73980;SDS011;62348;51.412;5.436;2023-08-12T07:46:02;5.45;;;4.35;;
73980;SDS011;62348;51.412;5.436;2023-08-12T07:48:27;4.63;;;4.15;;
73980;SDS011;62348;51.412;5.436;2023-08-12T07:50:59;6.05;;;4.85;;
73980;SDS011;62348;51.412;5.436;2023-08-12T07:53:25;5.22;;;4.50;;
73980;SDS011;62348;51.412;5.436;2023-08-12T07:55:51;4.85;;;4.35;;
73980;SDS011;62348;51.412;5.436;2023-08-12T07:58:17;4.55;;;4.05;;
73980;SDS011;62348;51.412;5.436;2023-08-12T08:00:42;5.53;;;4.40;;
73980;SDS011;62348;51.412;5.436;2023-08-12T08:03:08;5.63;;;3.80;;
73980;SDS011;62348;51.412;5.436;2023-08-12T08:05:33;4.60;;;3.88;;
73980;SDS011;62348;51.412;5.436;2023-08-12T08:07:59;4.40;;;4.00;;
73980;SDS011;62348;51.412;5.436;2023-08-12T08:10:24;4.25;;;3.85;;
73980;SDS011;62348;51.412;5.436;2023-08-12T08:12:50;3.90;;;3.60;;
73980;SDS011;62348;51.412;5.436;2023-08-12T08:15:15;4.05;;;3.70;;
73980;SDS011;62348;51.412;5.436;2023-08-12T08:17:41;4.45;;;4.05;;
73980;SDS011;62348;51.412;5.436;2023-08-12T08:20:06;1.90;;;1.80;;
73980;SDS011;62348;51.412;5.436;2023-08-12T08:22:32;2.67;;;2.10;;
73980;SDS011;62348;51.412;5.436;2023-08-12T08:24:58;1.60;;;1.50;;
73980;SDS011;62348;51.412;5.436;2023-08-12T08:27:23;2.30;;;1.42;;
73980;SDS011;62348;51.412;5.436;2023-08-12T08:29:49;1.50;;;1.40;;
73980;SDS011;62348;51.412;5.436;2023-08-12T08:32:14;1.60;;;1.50;;
73980;SDS011;62348;51.412;5.436;2023-08-12T08:34:39;1.70;;;1.60;;
73980;SDS011;62348;51.412;5.436;2023-08-12T08:37:05;2.40;;;2.20;;
73980;SDS011;62348;51.412;5.436;2023-08-12T08:39:30;2.88;;;2.67;;
73980;SDS011;62348;51.412;5.436;2023-08-12T08:41:56;3.42;;;3.15;;
73980;SDS011;62348;51.412;5.436;2023-08-12T08:44:23;4.63;;;4.22;;
73980;SDS011;62348;51.412;5.436;2023-08-12T08:46:51;5.00;;;4.60;;
73980;SDS011;62348;51.412;5.436;2023-08-12T08:49:21;6.00;;;4.40;;
73980;SDS011;62348;51.412;5.436;2023-08-12T08:51:47;5.00;;;4.60;;
73980;SDS011;62348;51.412;5.436;2023-08-12T08:54:14;5.53;;;5.13;;
73980;SDS011;62348;51.412;5.436;2023-08-12T08:56:40;5.68;;;5.15;;
73980;SDS011;62348;51.412;5.436;2023-08-12T08:59:06;6.75;;;6.25;;
73980;SDS011;62348;51.412;5.436;2023-08-12T09:01:32;7.40;;;6.68;;
73980;SDS011;62348;51.412;5.436;2023-08-12T09:04:00;7.90;;;7.28;;
73980;SDS011;62348;51.412;5.436;2023-08-12T09:06:28;8.15;;;7.55;;
73980;SDS011;62348;51.412;5.436;2023-08-12T09:08:54;8.10;;;7.50;;
73980;SDS011;62348;51.412;5.436;2023-08-12T09:11:21;8.50;;;7.90;;
73980;SDS011;62348;51.412;5.436;2023-08-12T09:13:46;9.15;;;8.35;;
73980;SDS011;62348;51.412;5.436;2023-08-12T09:16:12;9.48;;;8.77;;
73980;SDS011;62348;51.412;5.436;2023-08-12T09:18:39;10.80;;;10.00;;
73980;SDS011;62348;51.412;5.436;2023-08-12T09:21:07;10.52;;;9.73;;
73980;SDS011;62348;51.412;5.436;2023-08-12T09:23:37;11.13;;;10.23;;
73980;SDS011;62348;51.412;5.436;2023-08-12T09:26:13;11.48;;;10.57;;
73980;SDS011;62348;51.412;5.436;2023-08-12T09:28:43;8.38;;;7.68;;
73980;SDS011;62348;51.412;5.436;2023-08-12T09:31:21;6.50;;;6.00;;
73980;SDS011;62348;51.412;5.436;2023-08-12T09:33:50;5.45;;;5.05;;
73980;SDS011;62348;51.412;5.436;2023-08-12T09:36:17;5.88;;;5.05;;
73980;SDS011;62348;51.412;5.436;2023-08-12T09:38:43;5.80;;;4.72;;
73980;SDS011;62348;51.412;5.436;2023-08-12T09:41:09;4.82;;;4.53;;
73980;SDS011;62348;51.412;5.436;2023-08-12T09:43:35;5.30;;;4.90;;
73980;SDS011;62348;51.412;5.436;2023-08-12T09:46:04;4.57;;;4.28;;
73980;SDS011;62348;51.412;5.436;2023-08-12T09:48:30;4.03;;;3.72;;
73980;SDS011;62348;51.412;5.436;2023-08-12T09:50:55;5.10;;;4.10;;
73980;SDS011;62348;51.412;5.436;2023-08-12T09:53:22;3.50;;;3.20;;
73980;SDS011;62348;51.412;5.436;2023-08-12T09:55:48;3.83;;;3.53;;
73980;SDS011;62348;51.412;5.436;2023-08-12T09:58:17;4.03;;;3.20;;
73980;SDS011;62348;51.412;5.436;2023-08-12T10:00:44;4.32;;;3.78;;
73980;SDS011;62348;51.412;5.436;2023-08-12T10:03:11;3.72;;;3.42;;
73980;SDS011;62348;51.412;5.436;2023-08-12T10:05:39;3.60;;;3.40;;
73980;SDS011;62348;51.412;5.436;2023-08-12T10:08:05;3.35;;;3.05;;
73980;SDS011;62348;51.412;5.436;2023-08-12T10:10:32;4.80;;;3.35;;
73980;SDS011;62348;51.412;5.436;2023-08-12T10:13:00;3.53;;;3.25;;
73980;SDS011;62348;51.412;5.436;2023-08-12T10:15:26;2.88;;;2.67;;
73980;SDS011;62348;51.412;5.436;2023-08-12T10:17:52;2.85;;;2.65;;
73980;SDS011;62348;51.412;5.436;2023-08-12T10:20:21;4.05;;;2.60;;
73980;SDS011;62348;51.412;5.436;2023-08-12T10:22:49;2.40;;;2.17;;
73980;SDS011;62348;51.412;5.436;2023-08-12T10:25:15;3.50;;;2.80;;
73980;SDS011;62348;51.412;5.436;2023-08-12T10:27:43;3.50;;;2.70;;
73980;SDS011;62348;51.412;5.436;2023-08-12T10:30:09;4.20;;;2.65;;
73980;SDS011;62348;51.412;5.436;2023-08-12T10:32:35;3.05;;;2.70;;
73980;SDS011;62348;51.412;5.436;2023-08-12T10:35:01;4.43;;;2.75;;
73980;SDS011;62348;51.412;5.436;2023-08-12T10:37:30;4.13;;;2.75;;
73980;SDS011;62348;51.412;5.436;2023-08-12T10:39:58;3.55;;;2.63;;
73980;SDS011;62348;51.412;5.436;2023-08-12T10:42:39;3.40;;;2.60;;
73980;SDS011;62348;51.412;5.436;2023-08-12T10:45:09;4.85;;;2.45;;
73980;SDS011;62348;51.412;5.436;2023-08-12T10:47:39;3.00;;;2.40;;
73980;SDS011;62348;51.412;5.436;2023-08-12T10:50:06;3.38;;;2.20;;
73980;SDS011;62348;51.412;5.436;2023-08-12T10:52:40;2.60;;;2.10;;
73980;SDS011;62348;51.412;5.436;2023-08-12T10:55:19;4.22;;;2.35;;
73980;SDS011;62348;51.412;5.436;2023-08-12T10:57:54;3.97;;;2.33;;
73980;SDS011;62348;51.412;5.436;2023-08-12T11:00:26;3.03;;;2.72;;
73980;SDS011;62348;51.412;5.436;2023-08-12T11:02:54;3.55;;;2.55;;
73980;SDS011;62348;51.412;5.436;2023-08-12T11:05:21;3.50;;;2.60;;
73980;SDS011;62348;51.412;5.436;2023-08-12T11:07:57;3.50;;;2.38;;
73980;SDS011;62348;51.412;5.436;2023-08-12T11:10:30;5.95;;;2.38;;
73980;SDS011;62348;51.412;5.436;2023-08-12T11:12:57;4.22;;;2.22;;
73980;SDS011;62348;51.412;5.436;2023-08-12T11:15:30;4.95;;;2.55;;
73980;SDS011;62348;51.412;5.436;2023-08-12T11:17:59;4.22;;;2.30;;
73980;SDS011;62348;51.412;5.436;2023-08-12T11:20:27;4.90;;;2.53;;
73980;SDS011;62348;51.412;5.436;2023-08-12T11:22:54;4.15;;;1.95;;
73980;SDS011;62348;51.412;5.436;2023-08-12T11:25:19;6.20;;;2.50;;
73980;SDS011;62348;51.412;5.436;2023-08-12T11:27:47;4.72;;;2.20;;
73980;SDS011;62348;51.412;5.436;2023-08-12T11:30:13;5.43;;;1.85;;
73980;SDS011;62348;51.412;5.436;2023-08-12T11:32:44;6.45;;;2.20;;
73980;SDS011;62348;51.412;5.436;2023-08-12T11:35:11;5.00;;;2.55;;
73980;SDS011;62348;51.412;5.436;2023-08-12T11:37:38;4.50;;;2.28;;
73980;SDS011;62348;51.412;5.436;2023-08-12T11:40:04;8.23;;;3.13;;
73980;SDS011;62348;51.412;5.436;2023-08-12T11:42:31;4.80;;;2.40;;
73980;SDS011;62348;51.412;5.436;2023-08-12T11:44:57;4.78;;;1.83;;
73980;SDS011;62348;51.412;5.436;2023-08-12T11:47:23;6.85;;;2.10;;
73980;SDS011;62348;51.412;5.436;2023-08-12T11:49:48;9.95;;;2.50;;
73980;SDS011;62348;51.412;5.436;2023-08-12T11:52:14;7.15;;;2.58;;
73980;SDS011;62348;51.412;5.436;2023-08-12T11:54:40;6.15;;;3.10;;
73980;SDS011;62348;51.412;5.436;2023-08-12T11:57:05;7.30;;;2.55;;
73980;SDS011;62348;51.412;5.436;2023-08-12T11:59:31;6.80;;;2.63;;
73980;SDS011;62348;51.412;5.436;2023-08-12T12:01:57;7.30;;;3.00;;
73980;SDS011;62348;51.412;5.436;2023-08-12T12:04:22;11.48;;;3.03;;
73980;SDS011;62348;51.412;5.436;2023-08-12T12:06:48;7.40;;;3.05;;
73980;SDS011;62348;51.412;5.436;2023-08-12T12:09:14;5.88;;;2.85;;
73980;SDS011;62348;51.412;5.436;2023-08-12T12:11:43;9.18;;;4.05;;
73980;SDS011;62348;51.412;5.436;2023-08-12T12:14:09;5.93;;;2.75;;
73980;SDS011;62348;51.412;5.436;2023-08-12T12:16:40;11.93;;;3.80;;
73980;SDS011;62348;51.412;5.436;2023-08-12T12:21:46;9.77;;;3.88;;
73980;SDS011;62348;51.412;5.436;2023-08-12T12:24:13;11.40;;;4.00;;
73980;SDS011;62348;51.412;5.436;2023-08-12T12:26:39;6.97;;;3.55;;
73980;SDS011;62348;51.412;5.436;2023-08-12T12:29:04;7.60;;;3.78;;
73980;SDS011;62348;51.412;5.436;2023-08-12T12:31:34;10.55;;;4.20;;
73980;SDS011;62348;51.412;5.436;2023-08-12T12:34:02;9.55;;;4.35;;
73980;SDS011;62348;51.412;5.436;2023-08-12T12:36:29;5.30;;;3.13;;
73980;SDS011;62348;51.412;5.436;2023-08-12T12:38:55;8.70;;;3.00;;
73980;SDS011;62348;51.412;5.436;2023-08-12T12:41:20;6.88;;;3.40;;
73980;SDS011;62348;51.412;5.436;2023-08-12T12:43:46;8.50;;;4.05;;
73980;SDS011;62348;51.412;5.436;2023-08-12T12:46:11;12.80;;;4.47;;
73980;SDS011;62348;51.412;5.436;2023-08-12T12:48:37;10.88;;;4.47;;
73980;SDS011;62348;51.412;5.436;2023-08-12T12:51:02;12.45;;;4.93;;
73980;SDS011;62348;51.412;5.436;2023-08-12T12:53:28;8.63;;;4.65;;
73980;SDS011;62348;51.412;5.436;2023-08-12T12:55:53;9.55;;;4.55;;
73980;SDS011;62348;51.412;5.436;2023-08-12T12:58:19;8.65;;;4.28;;
73980;SDS011;62348;51.412;5.436;2023-08-12T13:00:47;7.50;;;3.42;;
73980;SDS011;62348;51.412;5.436;2023-08-12T13:03:12;7.15;;;3.75;;
73980;SDS011;62348;51.412;5.436;2023-08-12T13:05:38;8.50;;;2.80;;
73980;SDS011;62348;51.412;5.436;2023-08-12T13:08:03;9.55;;;3.45;;
73980;SDS011;62348;51.412;5.436;2023-08-12T13:10:29;5.32;;;2.90;;
73980;SDS011;62348;51.412;5.436;2023-08-12T13:12:54;7.22;;;2.33;;
73980;SDS011;62348;51.412;5.436;2023-08-12T13:15:20;8.75;;;3.05;;
73980;SDS011;62348;51.412;5.436;2023-08-12T13:17:45;7.70;;;3.47;;
73980;SDS011;62348;51.412;5.436;2023-08-12T13:20:11;6.80;;;2.85;;
73980;SDS011;62348;51.412;5.436;2023-08-12T13:22:36;7.32;;;3.33;;
73980;SDS011;62348;51.412;5.436;2023-08-12T13:25:05;7.90;;;3.58;;
73980;SDS011;62348;51.412;5.436;2023-08-12T13:27:31;8.55;;;3.53;;
73980;SDS011;62348;51.412;5.436;2023-08-12T13:29:59;7.88;;;3.95;;
73980;SDS011;62348;51.412;5.436;2023-08-12T13:32:25;8.98;;;3.67;;
73980;SDS011;62348;51.412;5.436;2023-08-12T13:34:50;6.72;;;3.63;;
73980;SDS011;62348;51.412;5.436;2023-08-12T13:37:15;7.15;;;3.20;;
73980;SDS011;62348;51.412;5.436;2023-08-12T13:39:41;6.78;;;3.03;;
73980;SDS011;62348;51.412;5.436;2023-08-12T13:42:06;8.50;;;3.15;;
73980;SDS011;62348;51.412;5.436;2023-08-12T13:44:32;11.88;;;4.72;;
73980;SDS011;62348;51.412;5.436;2023-08-12T13:46:57;11.18;;;4.90;;
73980;SDS011;62348;51.412;5.436;2023-08-12T13:49:24;10.65;;;5.25;;
73980;SDS011;62348;51.412;5.436;2023-08-12T13:51:49;8.82;;;4.63;;
73980;SDS011;62348;51.412;5.436;2023-08-12T13:54:15;11.95;;;5.90;;
73980;SDS011;62348;51.412;5.436;2023-08-12T13:56:40;7.65;;;4.25;;
73980;SDS011;62348;51.412;5.436;2023-08-12T13:59:06;11.85;;;5.18;;
73980;SDS011;62348;51.412;5.436;2023-08-12T14:01:31;8.93;;;4.40;;
73980;SDS011;62348;51.412;5.436;2023-08-12T14:03:56;11.60;;;4.82;;
73980;SDS011;62348;51.412;5.436;2023-08-12T14:06:22;10.95;;;4.47;;
73980;SDS011;62348;51.412;5.436;2023-08-12T14:08:47;6.53;;;4.55;;
73980;SDS011;62348;51.412;5.436;2023-08-12T14:11:13;6.47;;;3.80;;
73980;SDS011;62348;51.412;5.436;2023-08-12T14:13:38;10.25;;;4.63;;
73980;SDS011;62348;51.412;5.436;2023-08-12T14:16:03;12.10;;;4.90;;
73980;SDS011;62348;51.412;5.436;2023-08-12T14:18:29;6.28;;;4.45;;
73980;SDS011;62348;51.412;5.436;2023-08-12T14:20:54;9.98;;;5.70;;
73980;SDS011;62348;51.412;5.436;2023-08-12T14:23:20;8.60;;;5.45;;
73980;SDS011;62348;51.412;5.436;2023-08-12T14:25:45;10.80;;;5.97;;
73980;SDS011;62348;51.412;5.436;2023-08-12T14:28:11;7.55;;;5.93;;
73980;SDS011;62348;51.412;5.436;2023-08-12T14:30:36;8.27;;;6.43;;
73980;SDS011;62348;51.412;5.436;2023-08-12T14:33:02;9.10;;;7.57;;
73980;SDS011;62348;51.412;5.436;2023-08-12T14:35:27;10.70;;;8.07;;
73980;SDS011;62348;51.412;5.436;2023-08-12T14:37:53;9.00;;;7.88;;
73980;SDS011;62348;51.412;5.436;2023-08-12T14:40:18;10.52;;;7.93;;
73980;SDS011;62348;51.412;5.436;2023-08-12T14:42:43;11.25;;;7.45;;